Time;durP1;ratioP1;P1;durP2;ratioP2;P2;SDS_P1;SDS_P2;PMS_P1;PMS_P2;Temp;Humidity;BMP_temperature;BMP_pressure;BME280_temperature;BME280_humidity;BME280_pressure;Samples;Min_cycle;Max_cycle;Signal;HPM_P1;HPM_P2
2023/07/02 00:00:39;;;;;;;;;;;;;;;23.64;57.90;99894.38;4984665;28;4172;-61
2023/07/02 00:03:05;;;;;;;;;;;;;;;23.65;57.87;99892.94;4985749;28;4473;-61
2023/07/02 00:05:32;;;;;;;;;;;;;;;23.65;57.76;99884.25;4985837;28;4376;-61
2023/07/02 00:07:58;;;;;;;;;;;;;;;23.64;58.14;99894.38;4986198;28;4508;-61
2023/07/02 00:10:25;;;;;;;;;;;;;;;23.65;57.88;99895.81;4985999;28;3977;-61
2023/07/02 00:12:51;;;;;;;;;;;;;;;23.63;58.08;99898.66;4983145;28;4201;-61
2023/07/02 00:15:18;;;;;;;;;;;;;;;23.64;57.80;99897.25;4985930;28;4134;-61
2023/07/02 00:17:44;;;;;;;;;;;;;;;23.63;57.79;99893.63;4978344;28;4206;-61
2023/07/02 00:20:15;;;;;;;;;;;;;;;23.64;57.94;99905.94;4977172;28;4662;-62
2023/07/02 00:22:45;;;;;;;;;;;;;;;23.63;58.05;99898.66;4984495;28;3916;-61
2023/07/02 00:25:12;;;;;;;;;;;;;;;23.63;58.01;99908.06;4980760;28;4177;-61
2023/07/02 00:27:38;;;;;;;;;;;;;;;23.63;58.06;99904.44;4982605;28;4091;-61
2023/07/02 00:30:05;;;;;;;;;;;;;;;23.63;57.86;99910.22;4995179;28;4150;-61
2023/07/02 00:32:32;;;;;;;;;;;;;;;23.61;58.00;99905.13;4985814;28;4211;-61
2023/07/02 00:34:58;;;;;;;;;;;;;;;23.62;57.97;99914.56;4982082;28;4140;-61
2023/07/02 00:37:26;;;;;;;;;;;;;;;23.63;58.06;99907.34;4996916;28;4241;-61
2023/07/02 00:39:52;;;;;;;;;;;;;;;23.61;57.85;99907.28;4984923;28;4131;-61
2023/07/02 00:42:19;;;;;;;;;;;;;;;23.61;57.89;99905.13;4983925;28;4709;-61
2023/07/02 00:44:46;;;;;;;;;;;;;;;23.63;57.99;99913.13;4985364;28;4354;-61
2023/07/02 00:47:12;;;;;;;;;;;;;;;23.62;58.11;99914.56;4983921;28;4378;-61
2023/07/02 00:49:39;;;;;;;;;;;;;;;23.62;58.08;99917.44;4986776;28;4507;-61
2023/07/02 00:52:06;;;;;;;;;;;;;;;23.61;57.99;99916.69;4982482;28;4098;-61
2023/07/02 00:54:32;;;;;;;;;;;;;;;23.61;58.19;99921.75;4985488;28;4011;-61
2023/07/02 00:57:03;;;;;;;;;;;;;;;23.61;57.99;99915.97;4997781;28;4148;-61
2023/07/02 00:59:29;;;;;;;;;;;;;;;23.61;58.14;99918.84;4999385;28;4631;-61
2023/07/02 01:01:56;;;;;;;;;;;;;;;23.61;58.04;99913.06;4981675;28;4155;-61
2023/07/02 01:04:27;;;;;;;;;;;;;;;23.61;58.07;99915.97;4981856;28;4140;-61
2023/07/02 01:06:57;;;;;;;;;;;;;;;23.60;58.18;99923.19;5000443;28;4162;-61
2023/07/02 01:09:27;;;;;;;;;;;;;;;23.60;57.93;99918.13;4978731;28;4193;-61
2023/07/02 01:11:54;;;;;;;;;;;;;;;23.60;58.07;99923.19;4978911;28;4091;-61
2023/07/02 01:14:26;;;;;;;;;;;;;;;23.59;58.06;99921.72;4982727;28;4126;-61
2023/07/02 01:16:52;;;;;;;;;;;;;;;23.60;58.21;99923.19;4997913;28;4200;-61
2023/07/02 01:19:20;;;;;;;;;;;;;;;23.59;58.03;99922.47;4991153;28;4434;-61
2023/07/02 01:21:47;;;;;;;;;;;;;;;23.59;58.13;99915.94;4983064;28;4026;-61
2023/07/02 01:24:14;;;;;;;;;;;;;;;23.59;57.98;99924.59;4999811;28;4056;-61
2023/07/02 01:26:40;;;;;;;;;;;;;;;23.58;58.30;99914.47;4980206;28;4049;-61
2023/07/02 01:29:13;;;;;;;;;;;;;;;23.59;58.26;99930.38;4978277;28;4139;-61
2023/07/02 01:31:40;;;;;;;;;;;;;;;23.58;58.06;99926.75;4981402;28;4178;-61
2023/07/02 01:34:08;;;;;;;;;;;;;;;23.58;58.16;99926.75;4974339;28;4083;-62
2023/07/02 01:36:35;;;;;;;;;;;;;;;23.58;58.06;99926.03;4985097;28;4136;-61
2023/07/02 01:39:01;;;;;;;;;;;;;;;23.57;58.17;99928.19;4985107;28;4087;-62
2023/07/02 01:41:27;;;;;;;;;;;;;;;23.58;58.04;99926.03;4985447;28;4121;-61
2023/07/02 01:43:54;;;;;;;;;;;;;;;23.57;58.24;99927.44;4986197;28;4275;-61
2023/07/02 01:46:21;;;;;;;;;;;;;;;23.58;58.42;99931.81;4986836;28;4166;-61
2023/07/02 01:48:47;;;;;;;;;;;;;;;23.57;58.31;99930.34;4989114;28;3941;-62
2023/07/02 01:51:14;;;;;;;;;;;;;;;23.57;58.19;99931.09;4985687;28;4221;-61
2023/07/02 01:53:40;;;;;;;;;;;;;;;23.57;58.22;99931.09;4999681;28;4031;-62
2023/07/02 01:56:09;;;;;;;;;;;;;;;23.57;58.25;99927.44;4983623;28;4213;-62
2023/07/02 01:58:35;;;;;;;;;;;;;;;23.56;58.26;99923.09;4998455;28;4068;-61
2023/07/02 02:01:02;;;;;;;;;;;;;;;23.56;58.03;99918.06;5000032;28;4036;-61
2023/07/02 02:03:28;;;;;;;;;;;;;;;23.56;58.34;99928.88;4999712;28;5511;-61
2023/07/02 02:05:56;;;;;;;;;;;;;;;23.56;58.32;99935.41;5001697;28;4336;-61
2023/07/02 02:08:23;;;;;;;;;;;;;;;23.56;58.30;99926.00;4997931;28;5039;-61
2023/07/02 02:10:49;;;;;;;;;;;;;;;23.56;58.41;99923.09;5002267;28;4213;-61
2023/07/02 02:13:16;;;;;;;;;;;;;;;23.55;58.32;99927.44;4998226;28;4581;-61
2023/07/02 02:15:42;;;;;;;;;;;;;;;23.56;58.15;99934.66;4984935;28;4436;-61
2023/07/02 02:18:09;;;;;;;;;;;;;;;23.54;58.14;99929.56;5000612;28;4560;-61
2023/07/02 02:20:35;;;;;;;;;;;;;;;23.55;58.33;99939.72;4978957;28;4123;-61
2023/07/02 02:23:02;;;;;;;;;;;;;;;23.54;58.52;99940.41;4985398;28;4131;-60
2023/07/02 02:25:30;;;;;;;;;;;;;;;23.55;58.33;99939.00;4988067;28;4101;-61
2023/07/02 02:27:56;;;;;;;;;;;;;;;23.53;58.44;99936.78;4986375;28;4119;-61
2023/07/02 02:30:23;;;;;;;;;;;;;;;23.54;58.43;99937.50;5003766;28;4105;-61
2023/07/02 02:32:50;;;;;;;;;;;;;;;23.55;58.36;99933.22;4985847;28;4128;-61
2023/07/02 02:35:17;;;;;;;;;;;;;;;23.54;58.44;99940.41;5003947;28;4151;-61
2023/07/02 02:37:43;;;;;;;;;;;;;;;23.54;58.20;99937.50;4983250;28;4553;-61
2023/07/02 02:40:10;;;;;;;;;;;;;;;23.54;58.48;99934.63;4985410;28;4056;-61
2023/07/02 02:42:38;;;;;;;;;;;;;;;23.54;58.23;99931.75;4987112;28;4111;-61
2023/07/02 02:45:05;;;;;;;;;;;;;;;23.54;58.42;99943.28;4986402;28;4230;-61
2023/07/02 02:47:31;;;;;;;;;;;;;;;23.53;58.36;99948.34;4992853;28;4225;-61
2023/07/02 02:49:58;;;;;;;;;;;;;;;23.53;58.46;99956.28;4982644;28;4140;-61
2023/07/02 02:52:25;;;;;;;;;;;;;;;23.53;58.52;99953.41;4985956;28;4318;-61
2023/07/02 02:54:52;;;;;;;;;;;;;;;23.52;58.38;99946.13;4985446;28;4981;-61
2023/07/02 02:57:19;;;;;;;;;;;;;;;23.53;58.41;99959.19;4986058;28;4188;-61
2023/07/02 02:59:46;;;;;;;;;;;;;;;23.53;58.25;99962.06;4986868;28;4161;-61
2023/07/02 03:02:12;;;;;;;;;;;;;;;23.53;58.35;99951.25;4985760;28;4529;-61
2023/07/02 03:04:44;;;;;;;;;;;;;;;23.52;58.53;99954.81;4985201;28;4177;-61
2023/07/02 03:07:11;;;;;;;;;;;;;;;23.52;58.42;99960.59;4985000;28;4480;-61
2023/07/02 03:09:37;;;;;;;;;;;;;;;23.51;58.35;99962.03;4985422;28;4193;-61
2023/07/02 03:12:04;;;;;;;;;;;;;;;23.51;58.29;99959.13;4985361;28;4194;-61
2023/07/02 03:14:31;;;;;;;;;;;;;;;23.52;58.31;99963.47;4984217;28;4368;-61
2023/07/02 03:16:58;;;;;;;;;;;;;;;23.51;58.55;99956.25;4982998;28;4299;-67
2023/07/02 03:19:24;;;;;;;;;;;;;;;23.50;58.51;99958.41;4983940;28;3878;-68
2023/07/02 03:21:51;;;;;;;;;;;;;;;23.51;58.49;99953.34;4984760;28;4174;-67
2023/07/02 03:24:17;;;;;;;;;;;;;;;23.50;58.28;99955.53;4986429;28;5004;-67
2023/07/02 03:26:44;;;;;;;;;;;;;;;23.50;58.34;99967.09;4983699;28;4203;-67
2023/07/02 03:29:10;;;;;;;;;;;;;;;23.51;58.37;99962.03;4984465;28;4166;-67
2023/07/02 03:31:36;;;;;;;;;;;;;;;23.50;58.34;99954.78;4982221;28;4067;-67
2023/07/02 03:34:04;;;;;;;;;;;;;;;23.50;58.33;99954.78;4986322;28;4121;-67
2023/07/02 03:36:30;;;;;;;;;;;;;;;23.50;58.32;99957.66;4983852;28;4156;-67
2023/07/02 03:38:57;;;;;;;;;;;;;;;23.51;58.58;99967.81;4983713;28;4193;-67
2023/07/02 03:41:23;;;;;;;;;;;;;;;23.50;58.46;99957.66;4982057;28;4941;-67
2023/07/02 03:43:50;;;;;;;;;;;;;;;23.50;58.38;99961.31;4984603;28;4176;-67
2023/07/02 03:46:16;;;;;;;;;;;;;;;23.50;58.34;99969.22;4983446;28;4458;-67
2023/07/02 03:48:43;;;;;;;;;;;;;;;23.49;58.62;99961.97;4984795;28;4284;-67
2023/07/02 03:51:12;;;;;;;;;;;;;;;23.49;58.44;99968.50;4984238;28;4052;-67
2023/07/02 03:53:38;;;;;;;;;;;;;;;23.49;58.34;99964.88;4984205;28;4932;-67
2023/07/02 03:56:05;;;;;;;;;;;;;;;23.49;58.40;99970.66;4985955;28;4456;-67
2023/07/02 03:58:31;;;;;;;;;;;;;;;23.49;58.58;99973.53;4985015;28;4082;-67
2023/07/02 04:00:58;;;;;;;;;;;;;;;23.49;58.35;99974.28;4980573;28;4050;-68
2023/07/02 04:03:24;;;;;;;;;;;;;;;23.49;58.36;99982.94;4984516;28;4027;-67
2023/07/02 04:05:51;;;;;;;;;;;;;;;23.49;58.35;99988.00;4982607;28;4071;-67
2023/07/02 04:08:17;;;;;;;;;;;;;;;23.49;58.49;99982.22;4984550;28;4142;-67
2023/07/02 04:10:44;;;;;;;;;;;;;;;23.49;58.46;99988.00;4978331;28;4261;-67
2023/07/02 04:13:11;;;;;;;;;;;;;;;23.48;58.43;99975.72;4991103;28;4178;-67
2023/07/02 04:15:37;;;;;;;;;;;;;;;23.48;58.35;99984.38;4999299;28;4076;-67
2023/07/02 04:18:03;;;;;;;;;;;;;;;23.48;58.47;99981.47;4997364;28;4182;-66
2023/07/02 04:20:30;;;;;;;;;;;;;;;23.46;58.64;99987.22;4982031;28;4027;-67
2023/07/02 04:22:56;;;;;;;;;;;;;;;23.48;58.50;99983.63;4981872;28;4128;-67
2023/07/02 04:25:23;;;;;;;;;;;;;;;23.48;58.67;99974.94;4985090;28;4085;-67
2023/07/02 04:28:09;;;;;;;;;;;;;;;23.48;58.56;99990.16;4982572;28;4499;-67
2023/07/02 04:30:35;;;;;;;;;;;;;;;23.48;58.42;99975.72;4983533;28;4030;-68
2023/07/02 04:33:02;;;;;;;;;;;;;;;23.47;58.50;99990.84;4980290;28;4068;-67
2023/07/02 04:35:28;;;;;;;;;;;;;;;23.47;58.72;99990.84;4982700;28;4508;-67
2023/07/02 04:37:55;;;;;;;;;;;;;;;23.47;58.38;100000.22;4981008;28;3932;-67
2023/07/02 04:40:21;;;;;;;;;;;;;;;23.47;58.42;100003.13;4981791;28;4450;-67
2023/07/02 04:42:48;;;;;;;;;;;;;;;23.48;58.70;100012.50;4985851;28;4201;-67
2023/07/02 04:45:15;;;;;;;;;;;;;;;23.47;58.75;100013.94;4983348;28;4149;-67
2023/07/02 04:47:43;;;;;;;;;;;;;;;23.48;58.43;100021.19;4983480;28;4135;-67
2023/07/02 04:50:11;;;;;;;;;;;;;;;23.48;58.37;100018.28;4982822;28;4201;-67
2023/07/02 04:52:38;;;;;;;;;;;;;;;23.46;58.65;100024.78;4984037;28;4033;-67
2023/07/02 04:55:05;;;;;;;;;;;;;;;23.47;58.49;100020.47;4984249;28;4158;-67
2023/07/02 04:57:31;;;;;;;;;;;;;;;23.48;58.54;100026.97;4986509;28;4201;-67
2023/07/02 04:59:57;;;;;;;;;;;;;;;23.48;58.64;100026.97;4985231;28;4038;-67
2023/07/02 05:02:24;;;;;;;;;;;;;;;23.48;58.62;100026.97;4982339;28;4196;-68
2023/07/02 05:04:50;;;;;;;;;;;;;;;23.47;58.41;100034.91;4982480;28;4141;-68
2023/07/02 05:07:17;;;;;;;;;;;;;;;23.48;58.58;100029.84;4984399;28;4391;-67
2023/07/02 05:09:43;;;;;;;;;;;;;;;23.47;58.55;100031.28;4985665;28;4137;-67
2023/07/02 05:12:09;;;;;;;;;;;;;;;23.47;58.37;100013.94;4982273;28;4416;-67
2023/07/02 05:14:36;;;;;;;;;;;;;;;23.47;58.27;100028.41;4986551;28;4325;-67
2023/07/02 05:17:03;;;;;;;;;;;;;;;23.46;58.62;100024.78;4986965;28;5103;-67
2023/07/02 05:19:29;;;;;;;;;;;;;;;23.46;58.47;100024.78;4988515;28;4033;-67
2023/07/02 05:21:55;;;;;;;;;;;;;;;23.47;58.44;100034.19;4986680;28;4494;-67
2023/07/02 05:24:22;;;;;;;;;;;;;;;23.47;58.38;100037.06;4986281;28;3948;-67
2023/07/02 05:26:50;;;;;;;;;;;;;;;23.46;58.52;100030.56;4985434;28;4033;-67
2023/07/02 05:29:16;;;;;;;;;;;;;;;23.46;58.71;100035.63;4987795;28;4167;-67
2023/07/02 05:31:43;;;;;;;;;;;;;;;23.46;58.46;100038.50;4988354;28;4214;-67
2023/07/02 05:34:09;;;;;;;;;;;;;;;23.46;58.49;100035.63;4983376;28;4162;-71
2023/07/02 05:36:36;;;;;;;;;;;;;;;23.36;58.60;100036.13;4986217;28;4173;-68
2023/07/02 05:39:02;;;;;;;;;;;;;;;23.28;58.72;100039.56;4989950;28;4114;-68
2023/07/02 05:41:30;;;;;;;;;;;;;;;23.37;58.26;100046.25;4988744;28;4156;-67
2023/07/02 05:43:57;;;;;;;;;;;;;;;23.41;58.25;100041.31;4984426;28;4137;-68
2023/07/02 05:46:24;;;;;;;;;;;;;;;23.40;58.36;100034.03;4983920;28;4169;-68
2023/07/02 05:48:50;;;;;;;;;;;;;;;23.37;58.46;100038.31;4982194;28;4245;-67
2023/07/02 05:51:20;;;;;;;;;;;;;;;23.36;58.49;100042.63;4984199;28;4247;-67
2023/07/02 05:53:47;;;;;;;;;;;;;;;23.34;58.29;100042.59;4988336;28;4130;-67
2023/07/02 05:56:13;;;;;;;;;;;;;;;23.34;58.33;100045.50;4985988;28;4373;-68
2023/07/02 05:58:39;;;;;;;;;;;;;;;23.33;58.22;100054.84;4986232;28;4370;-67
2023/07/02 06:01:14;;;;;;;;;;;;;;;23.35;58.04;100046.94;4984205;28;4220;-67
2023/07/02 06:03:40;;;;;;;;;;;;;;;23.31;57.84;100049.75;4983032;28;4171;-67
2023/07/02 06:06:07;;;;;;;;;;;;;;;23.31;58.08;100038.19;4986256;28;4166;-69
2023/07/02 06:08:33;;;;;;;;;;;;;;;23.30;57.81;100041.78;4988637;28;4022;-69
2023/07/02 06:10:59;;;;;;;;;;;;;;;23.31;57.60;100043.97;4986027;28;3979;-69
2023/07/02 06:13:26;;;;;;;;;;;;;;;23.32;57.89;100059.13;4984416;28;4422;-69
2023/07/02 06:15:52;;;;;;;;;;;;;;;23.33;57.59;100057.72;4987528;28;4784;-69
2023/07/02 06:18:19;;;;;;;;;;;;;;;23.30;57.77;100048.28;4988768;28;4267;-69
2023/07/02 06:20:45;;;;;;;;;;;;;;;23.29;57.44;100046.81;4990299;28;4062;-69
2023/07/02 06:23:12;;;;;;;;;;;;;;;23.30;57.36;100039.63;4985503;28;4168;-69
2023/07/02 06:25:39;;;;;;;;;;;;;;;23.29;57.56;100022.97;4983632;28;4352;-69
2023/07/02 06:28:05;;;;;;;;;;;;;;;23.31;57.48;100025.91;4985940;28;4072;-68
2023/07/02 06:30:31;;;;;;;;;;;;;;;23.30;57.30;100041.78;4986201;28;4229;-69
2023/07/02 06:32:58;;;;;;;;;;;;;;;23.29;57.51;100043.19;4986443;28;4156;-69
2023/07/02 06:35:24;;;;;;;;;;;;;;;23.30;57.38;100050.44;4984520;28;4405;-69
2023/07/02 06:37:51;;;;;;;;;;;;;;;23.30;57.61;100042.50;4985759;28;4089;-69
2023/07/02 06:40:17;;;;;;;;;;;;;;;23.22;57.09;100042.31;4982304;28;4131;-70
2023/07/02 06:42:44;;;;;;;;;;;;;;;22.77;56.56;100041.31;4980680;28;4189;-69
2023/07/02 06:45:10;;;;;;;;;;;;;;;22.90;56.85;100036.53;4985960;28;4155;-70
2023/07/02 06:47:37;;;;;;;;;;;;;;;22.44;55.89;100051.31;4985516;28;4173;-71
2023/07/02 06:50:04;;;;;;;;;;;;;;;22.20;55.18;100057.19;4983863;28;4055;-70
2023/07/02 06:52:30;;;;;;;;;;;;;;;22.45;56.10;100042.00;4986154;28;4378;-70
2023/07/02 06:54:56;;;;;;;;;;;;;;;22.50;55.36;100049.31;4987078;28;4066;-71
2023/07/02 06:57:23;;;;;;;;;;;;;;;22.50;55.35;100055.09;4983494;28;4149;-70
2023/07/02 06:59:50;;;;;;;;;;;;;;;22.16;55.47;100058.53;4984257;28;4514;-68
2023/07/02 07:02:16;;;;;;;;;;;;;;;22.07;55.29;100062.59;4980968;28;4293;-68
2023/07/02 07:04:43;;;;;;;;;;;;;;;22.48;54.66;100055.03;4986034;28;4217;-69
2023/07/02 07:07:09;;;;;;;;;;;;;;;22.42;54.78;100065.69;4989331;28;4425;-68
2023/07/02 07:09:35;;;;;;;;;;;;;;;22.52;54.12;100060.19;4986561;28;4249;-71
2023/07/02 07:12:02;;;;;;;;;;;;;;;22.58;54.11;100049.50;4986859;28;4023;-73
2023/07/02 07:14:28;;;;;;;;;;;;;;;22.53;53.54;100053.72;4981182;28;4288;-74
2023/07/02 07:16:55;;;;;;;;;;;;;;;22.66;53.57;100051.13;4985894;28;4189;-73
2023/07/02 07:19:21;;;;;;;;;;;;;;;22.83;53.28;100047.19;4991174;28;3985;-73
2023/07/02 07:21:48;;;;;;;;;;;;;;;22.93;53.35;100046.69;4988974;28;3905;-74
2023/07/02 07:24:14;;;;;;;;;;;;;;;23.00;53.56;100060.63;4985446;28;4168;-73
2023/07/02 07:26:41;;;;;;;;;;;;;;;23.05;53.71;100057.84;4987162;28;4212;-73
2023/07/02 07:29:07;;;;;;;;;;;;;;;23.07;53.75;100061.50;4985287;28;4134;-73
2023/07/02 07:31:33;;;;;;;;;;;;;;;23.09;53.79;100055.03;4989782;28;4185;-73
2023/07/02 07:34:00;;;;;;;;;;;;;;;23.11;53.90;100070.25;4987442;28;4085;-73
2023/07/02 07:36:26;;;;;;;;;;;;;;;23.12;53.67;100074.59;4985170;28;3992;-73
2023/07/02 07:38:53;;;;;;;;;;;;;;;23.13;53.79;100069.56;4986608;28;4126;-71
2023/07/02 07:41:19;;;;;;;;;;;;;;;23.12;53.68;100073.88;4987993;28;4481;-73
2023/07/02 07:43:45;;;;;;;;;;;;;;;23.13;53.57;100072.44;4986142;28;4152;-73
2023/07/02 07:46:12;;;;;;;;;;;;;;;23.12;53.67;100071.72;4984607;28;4146;-73
2023/07/02 07:48:38;;;;;;;;;;;;;;;23.12;53.81;100085.44;4986761;28;4025;-73
2023/07/02 07:51:05;;;;;;;;;;;;;;;23.13;53.52;100098.44;4984302;28;4190;-73
2023/07/02 07:53:31;;;;;;;;;;;;;;;23.13;53.64;100086.88;4987101;28;4181;-73
2023/07/02 07:55:57;;;;;;;;;;;;;;;23.13;53.55;100087.63;4983019;28;4086;-73
2023/07/02 07:58:24;;;;;;;;;;;;;;;23.00;53.78;100091.66;4983298;28;4063;-79
2023/07/02 08:00:50;;;;;;;;;;;;;;;22.96;53.47;100115.34;4979428;28;5158;-69
2023/07/02 08:03:17;;;;;;;;;;;;;;;22.85;53.54;100104.97;4982439;28;4306;-69
2023/07/02 08:05:44;;;;;;;;;;;;;;;23.02;53.37;100105.38;4987578;28;4210;-68
2023/07/02 08:08:10;;;;;;;;;;;;;;;23.07;53.40;100106.97;4987670;28;4227;-68
2023/07/02 08:10:37;;;;;;;;;;;;;;;23.14;53.38;100097.03;4984101;28;4205;-67
2023/07/02 08:13:03;;;;;;;;;;;;;;;23.14;53.22;100089.09;4981195;28;4248;-67
2023/07/02 08:15:29;;;;;;;;;;;;;;;23.14;53.49;100077.53;4987693;28;4070;-69
2023/07/02 08:17:58;;;;;;;;;;;;;;;23.16;53.38;100082.63;4986488;28;4178;-68
2023/07/02 08:20:25;;;;;;;;;;;;;;;23.17;53.32;100081.22;4984720;28;4182;-68
2023/07/02 08:22:51;;;;;;;;;;;;;;;23.20;53.45;100074.03;4983040;28;4451;-68
2023/07/02 08:25:18;;;;;;;;;;;;;;;23.23;53.08;100090.00;4980424;28;4119;-69
2023/07/02 08:27:44;;;;;;;;;;;;;;;23.19;53.41;100084.13;4982264;28;4195;-69
2023/07/02 08:30:11;;;;;;;;;;;;;;;23.14;53.20;100083.31;4979081;28;4891;-69
2023/07/02 08:32:37;;;;;;;;;;;;;;;22.96;53.31;100092.25;4976858;28;4359;-69
2023/07/02 08:35:03;;;;;;;;;;;;;;;23.07;53.05;100095.44;4982931;28;4111;-70
2023/07/02 08:37:30;;;;;;;;;;;;;;;23.13;52.88;100092.66;4977289;28;4011;-70
2023/07/02 08:39:56;;;;;;;;;;;;;;;23.17;52.85;100092.75;4983451;28;3958;-69
2023/07/02 08:42:23;;;;;;;;;;;;;;;23.21;53.21;100092.84;4981694;28;4117;-69
2023/07/02 08:44:52;;;;;;;;;;;;;;;23.25;53.39;100101.63;4981498;28;5334;-69
2023/07/02 08:47:19;;;;;;;;;;;;;;;23.24;52.98;100103.03;4980333;28;4127;-71
2023/07/02 08:49:47;;;;;;;;;;;;;;;23.23;53.21;100101.56;4991223;28;4144;-70
2023/07/02 08:52:14;;;;;;;;;;;;;;;23.25;52.99;100104.50;4981669;28;4242;-70
2023/07/02 08:54:41;;;;;;;;;;;;;;;23.24;53.05;100113.84;4982681;28;4058;-70
2023/07/02 08:57:08;;;;;;;;;;;;;;;23.23;52.03;100113.13;4982624;28;4233;-69
2023/07/02 08:59:37;;;;;;;;;;;;;;;23.24;52.13;100119.63;4979395;28;4004;-70
2023/07/02 09:02:04;;;;;;;;;;;;;;;23.23;52.29;100123.91;4982962;28;4137;-69
2023/07/02 09:04:30;;;;;;;;;;;;;;;23.25;52.25;100127.63;4984676;28;4208;-70
2023/07/02 09:07:06;;;;;;;;;;;;;;;23.24;52.34;100119.63;4982213;28;4292;-71
2023/07/02 09:09:33;;;;;;;;;;;;;;;23.25;52.06;100121.84;4982396;28;4149;-70
2023/07/02 09:12:00;;;;;;;;;;;;;;;23.26;52.00;100123.28;4981218;28;4135;-71
2023/07/02 09:14:30;;;;;;;;;;;;;;;23.26;52.10;100129.06;5001537;28;3997;-70
2023/07/02 09:17:03;;;;;;;;;;;;;;;23.26;51.86;100131.97;4996992;28;4229;-70
2023/07/02 09:19:30;;;;;;;;;;;;;;;23.25;52.17;100133.38;4973374;28;3986;-70
2023/07/02 09:21:59;;;;;;;;;;;;;;;23.25;51.97;100133.38;4981968;28;5153;-61
2023/07/02 09:24:25;;;;;;;;;;;;;;;23.28;52.06;100132.00;4981500;28;4386;-69
2023/07/02 09:26:53;;;;;;;;;;;;;;;23.28;52.63;100129.13;4982938;28;4132;-66
2023/07/02 09:29:23;;;;;;;;;;;;;;;23.27;52.21;100130.53;4981194;28;4155;-65
2023/07/02 09:31:50;;;;;;;;;;;;;;;23.28;52.52;100134.91;4984284;28;4640;-66
2023/07/02 09:34:35;;;;;;;;;;;;;;;23.28;52.70;100125.50;4980911;28;4802;-65
2023/07/02 09:37:02;;;;;;;;;;;;;;;23.27;52.88;100127.63;4978836;28;4159;-65
2023/07/02 09:39:32;;;;;;;;;;;;;;;23.26;52.63;100114.63;4996005;28;5588;-66
2023/07/02 09:41:59;;;;;;;;;;;;;;;23.28;52.62;100117.56;4983153;28;4078;-65
2023/07/02 09:44:29;;;;;;;;;;;;;;;23.29;52.76;100116.13;4980476;28;4158;-65
2023/07/02 09:47:03;;;;;;;;;;;;;;;23.29;52.47;100121.91;4980884;28;4241;-65
2023/07/02 09:49:31;;;;;;;;;;;;;;;23.30;52.50;100134.94;4978821;28;4335;-65
2023/07/02 09:51:58;;;;;;;;;;;;;;;23.30;52.53;100140.00;4981272;28;4302;-65
2023/07/02 09:54:25;;;;;;;;;;;;;;;23.30;52.32;100122.66;4977822;28;4223;-65
2023/07/02 09:56:51;;;;;;;;;;;;;;;23.31;52.32;100119.06;4986601;28;4243;-66
2023/07/02 09:59:18;;;;;;;;;;;;;;;23.32;52.40;100120.53;4979735;28;4068;-65
2023/07/02 10:01:44;;;;;;;;;;;;;;;23.33;52.19;100121.28;4983750;28;4262;-65
2023/07/02 10:04:13;;;;;;;;;;;;;;;23.34;52.36;100123.47;4982754;28;4056;-65
2023/07/02 10:06:46;;;;;;;;;;;;;;;23.33;52.61;100122.00;4977604;28;4598;-66
2023/07/02 10:09:13;;;;;;;;;;;;;;;23.33;52.47;100112.59;4984944;28;4138;-66
2023/07/02 10:11:39;;;;;;;;;;;;;;;23.35;52.42;100122.06;4986654;28;4163;-65
2023/07/02 10:14:06;;;;;;;;;;;;;;;23.35;52.45;100107.59;4986200;28;4176;-66
2023/07/02 10:16:32;;;;;;;;;;;;;;;23.36;52.75;100123.50;4980732;28;4132;-65
2023/07/02 10:19:09;;;;;;;;;;;;;;;23.36;52.28;100108.34;4983683;28;4143;-66
2023/07/02 10:21:35;;;;;;;;;;;;;;;23.37;52.16;100112.69;4984150;28;4143;-66
2023/07/02 10:24:09;;;;;;;;;;;;;;;23.35;51.88;100112.66;4983037;28;4490;-67
2023/07/02 10:26:35;;;;;;;;;;;;;;;23.34;52.17;100140.81;4984411;28;4100;-66
2023/07/02 10:29:02;;;;;;;;;;;;;;;23.31;51.89;100113.28;4985660;28;4135;-66
2023/07/02 10:31:28;;;;;;;;;;;;;;;23.28;51.04;100111.06;4990114;28;4070;-68
2023/07/02 10:33:55;;;;;;;;;;;;;;;23.25;50.85;100109.53;4986339;28;4454;-66
2023/07/02 10:36:23;;;;;;;;;;;;;;;23.21;50.73;100127.50;4982588;28;4064;-64
2023/07/02 10:38:49;;;;;;;;;;;;;;;23.28;51.03;100108.91;4983850;28;4164;-64
2023/07/02 10:41:25;;;;;;;;;;;;;;;23.36;50.92;100103.28;4980675;28;5004;-64
2023/07/02 10:43:52;;;;;;;;;;;;;;;23.40;51.40;100097.59;4986813;28;4148;-64
2023/07/02 10:46:19;;;;;;;;;;;;;;;23.45;52.21;100103.47;4986180;28;4338;-64
2023/07/02 10:48:52;;;;;;;;;;;;;;;23.67;51.98;100098.16;4984957;28;3939;-70
2023/07/02 10:51:18;;;;;;;;;;;;;;;23.89;51.66;100102.94;4984299;28;5045;-70
2023/07/02 10:53:45;;;;;;;;;;;;;;;24.14;51.31;100098.38;4987521;28;4044;-73
2023/07/02 10:56:16;;;;;;;;;;;;;;;24.22;51.18;100110.09;4985089;28;4183;-70
2023/07/02 10:58:43;;;;;;;;;;;;;;;24.25;51.41;100109.44;4986488;28;4645;-70
2023/07/02 11:01:09;;;;;;;;;;;;;;;24.24;50.71;100102.19;4989539;28;4350;-73
2023/07/02 11:03:37;;;;;;;;;;;;;;;24.25;51.97;100129.69;4995861;28;4406;-75
2023/07/02 11:06:04;;;;;;;;;;;;;;;24.48;51.30;100124.34;4992062;28;4042;-73
2023/07/02 11:08:34;;;;;;;;;;;;;;;24.58;50.88;100124.53;5007545;28;4156;-74
2023/07/02 11:11:07;;;;;;;;;;;;;;;24.66;50.82;100132.59;4997702;28;4007;-76
2023/07/02 11:13:33;;;;;;;;;;;;;;;24.74;50.85;100144.34;4995517;28;4135;-75
2023/07/02 11:16:00;;;;;;;;;;;;;;;24.64;50.38;100141.25;4991355;28;4391;-75
2023/07/02 11:18:29;;;;;;;;;;;;;;;24.15;52.12;100149.75;4987326;28;4107;-74
2023/07/02 11:20:56;;;;;;;;;;;;;;;24.01;51.86;100149.47;5000805;28;4038;-75
2023/07/02 11:23:23;;;;;;;;;;;;;;;23.97;52.33;100141.44;4986188;28;4213;-70
2023/07/02 11:25:59;;;;;;;;;;;;;;;23.93;52.48;100149.31;4978002;28;4482;-69
2023/07/02 11:28:26;;;;;;;;;;;;;;;23.93;52.51;100143.53;4983068;28;4145;-68
2023/07/02 11:30:52;;;;;;;;;;;;;;;23.94;52.41;100156.56;4980264;28;4277;-71
2023/07/02 11:33:20;;;;;;;;;;;;;;;23.91;52.68;100135.53;4981015;28;4180;-75
2023/07/02 11:35:46;;;;;;;;;;;;;;;23.95;52.73;100152.25;5005684;28;4072;-78
2023/07/02 11:38:13;;;;;;;;;;;;;;;23.97;52.61;100155.91;4992530;28;4218;-76
2023/07/02 11:40:39;;;;;;;;;;;;;;;23.99;52.78;100158.09;4987527;28;4032;-78
2023/07/02 11:43:06;;;;;;;;;;;;;;;23.99;52.77;100158.09;4991487;28;4072;-70
2023/07/02 11:45:32;;;;;;;;;;;;;;;23.95;53.06;100141.41;4986734;28;4127;-71
2023/07/02 11:47:59;;;;;;;;;;;;;;;23.94;53.20;100165.97;4986838;28;4519;-66
2023/07/02 11:50:25;;;;;;;;;;;;;;;23.75;51.13;100153.28;4979624;28;4041;-73
2023/07/02 11:52:52;;;;;;;;;;;;;;;23.82;51.47;100163.56;4978777;28;4183;-72
2023/07/02 11:55:19;;;;;;;;;;;;;;;23.87;50.10;100158.59;4980643;28;4069;-72
2023/07/02 11:57:46;;;;;;;;;;;;;;;23.81;48.45;100150.50;4983753;28;4529;-70
2023/07/02 12:00:13;;;;;;;;;;;;;;;23.79;47.52;100162.03;4985358;28;4468;-70
2023/07/02 12:02:40;;;;;;;;;;;;;;;23.83;46.91;100147.66;4988167;28;4031;-70
2023/07/02 12:05:07;;;;;;;;;;;;;;;23.87;47.46;100160.72;4985384;28;5340;-70
2023/07/02 12:07:37;;;;;;;;;;;;;;;23.88;48.23;100159.31;4990555;28;4135;-70
2023/07/02 12:10:04;;;;;;;;;;;;;;;23.88;48.82;100168.00;4987922;28;4099;-70
2023/07/02 12:12:31;;;;;;;;;;;;;;;23.89;49.08;100178.88;4985916;28;4331;-70
2023/07/02 12:14:57;;;;;;;;;;;;;;;23.89;49.61;100169.44;4984339;28;4373;-71
2023/07/02 12:17:23;;;;;;;;;;;;;;;23.89;49.75;100186.81;4982555;28;4143;-70
2023/07/02 12:19:50;;;;;;;;;;;;;;;23.90;49.84;100170.94;4983387;28;4183;-71
2023/07/02 12:22:17;;;;;;;;;;;;;;;23.88;50.36;100165.09;4984248;28;5019;-70
2023/07/02 12:24:44;;;;;;;;;;;;;;;23.88;50.53;100176.66;4988078;28;4212;-70
2023/07/02 12:27:10;;;;;;;;;;;;;;;23.89;50.70;100172.34;4984232;28;4150;-70
2023/07/02 12:29:37;;;;;;;;;;;;;;;23.89;50.68;100172.34;4987916;28;4209;-71
2023/07/02 12:32:04;;;;;;;;;;;;;;;23.90;50.82;100165.16;4985155;28;4058;-70
2023/07/02 12:34:31;;;;;;;;;;;;;;;23.89;50.96;100166.56;4985610;28;4195;-70
2023/07/02 12:36:57;;;;;;;;;;;;;;;23.89;50.81;100173.09;4984465;28;4071;-71
2023/07/02 12:39:24;;;;;;;;;;;;;;;23.89;51.10;100173.09;4986909;28;3935;-70
2023/07/02 12:41:50;;;;;;;;;;;;;;;23.89;51.05;100178.88;4990949;28;4133;-70
2023/07/02 12:44:17;;;;;;;;;;;;;;;23.89;51.49;100169.44;4988221;28;4013;-70
2023/07/02 12:46:43;;;;;;;;;;;;;;;23.88;51.40;100176.66;4982908;28;4272;-70
2023/07/02 12:49:10;;;;;;;;;;;;;;;23.86;51.77;100179.53;4983303;28;4526;-70